Time;durP1;ratioP1;P1;durP2;ratioP2;P2;SDS_P1;SDS_P2;PMS_P1;PMS_P2;Temp;Humidity;BMP_temperature;BMP_pressure;BME280_temperature;BME280_humidity;BME280_pressure;Samples;Min_cycle;Max_cycle;Signal;HPM_P1;HPM_P2
2022/03/08 00:00:31;;;;;;;16.00;6.90;;;4.70;99.90;;;;;;5034892;28;20409;-66
2022/03/08 00:02:57;;;;;;;15.68;6.63;;;4.60;99.90;;;;;;5035568;28;20444;-64
2022/03/08 00:05:24;;;;;;;16.50;6.93;;;4.60;99.90;;;;;;5035524;28;20746;-66
2022/03/08 00:07:50;;;;;;;21.73;8.25;;;4.50;99.90;;;;;;5036653;28;20053;-63
2022/03/08 00:10:16;;;;;;;15.57;6.30;;;4.50;99.90;;;;;;5036234;28;20450;-66
2022/03/08 00:12:43;;;;;;;18.65;7.18;;;4.50;99.90;;;;;;5034588;28;21795;-65
2022/03/08 00:15:11;;;;;;;18.98;7.43;;;4.40;99.90;;;;;;5038099;28;20017;-66
2022/03/08 00:17:37;;;;;;;18.10;8.02;;;4.40;99.90;;;;;;5034593;28;20021;-65
2022/03/08 00:20:06;;;;;;;17.08;6.97;;;4.40;99.90;;;;;;5037400;28;20029;-65
2022/03/08 00:22:33;;;;;;;17.27;6.43;;;4.40;99.90;;;;;;5037019;28;20394;-62
2022/03/08 00:25:01;;;;;;;15.77;6.95;;;4.30;99.90;;;;;;5032566;28;20053;-63
2022/03/08 00:27:28;;;;;;;13.98;6.32;;;4.30;99.90;;;;;;5040934;28;20024;-63
2022/03/08 00:29:53;;;;;;;17.17;7.07;;;4.30;99.90;;;;;;5053033;28;20133;-62
2022/03/08 00:32:19;;;;;;;16.30;6.88;;;4.30;99.90;;;;;;5053360;28;20143;-65
2022/03/08 00:34:45;;;;;;;19.40;7.90;;;4.20;99.90;;;;;;5049974;28;20040;-63
2022/03/08 00:37:10;;;;;;;17.55;7.10;;;4.20;99.90;;;;;;5038803;28;20070;-63
2022/03/08 00:39:36;;;;;;;25.55;9.63;;;4.10;99.90;;;;;;5048196;28;20068;-65
2022/03/08 00:42:02;;;;;;;15.55;6.72;;;4.10;99.90;;;;;;5047911;28;20035;-67
2022/03/08 00:44:28;;;;;;;24.65;11.48;;;4.10;99.90;;;;;;5045713;28;20048;-63
2022/03/08 00:46:54;;;;;;;17.75;6.95;;;4.10;99.90;;;;;;5038162;28;20021;-65
2022/03/08 00:49:20;;;;;;;19.38;6.30;;;4.00;99.90;;;;;;5054831;28;20112;-67
2022/03/08 00:51:46;;;;;;;16.73;7.22;;;4.00;99.90;;;;;;5043422;28;20024;-67
2022/03/08 00:54:11;;;;;;;20.30;7.55;;;4.00;99.90;;;;;;5046235;28;20032;-62
2022/03/08 00:56:37;;;;;;;18.05;6.90;;;4.00;99.90;;;;;;5051323;28;20025;-66
2022/03/08 00:59:03;;;;;;;17.65;7.55;;;3.90;99.90;;;;;;5050412;28;20025;-65
2022/03/08 01:01:28;;;;;;;17.10;6.30;;;3.90;99.90;;;;;;5045095;28;20052;-65
2022/03/08 01:03:54;;;;;;;18.88;7.60;;;3.90;99.90;;;;;;5039195;28;20087;-66
2022/03/08 01:06:20;;;;;;;19.83;8.32;;;3.90;99.90;;;;;;5033206;28;20523;-61
2022/03/08 01:08:45;;;;;;;17.77;8.25;;;3.80;99.90;;;;;;5024230;28;20056;-65
2022/03/08 01:11:11;;;;;;;17.83;7.93;;;3.80;99.90;;;;;;5051278;28;20114;-63
2022/03/08 01:13:36;;;;;;;16.17;6.45;;;3.80;99.90;;;;;;5051992;28;20100;-63
2022/03/08 01:16:02;;;;;;;17.85;7.70;;;3.80;99.90;;;;;;5050176;28;20055;-65
2022/03/08 01:18:28;;;;;;;18.63;7.63;;;3.70;99.90;;;;;;5051800;28;20056;-65
2022/03/08 01:20:53;;;;;;;17.27;7.03;;;3.70;99.90;;;;;;5046279;28;20056;-62
2022/03/08 01:23:19;;;;;;;16.70;6.53;;;3.70;99.90;;;;;;5052708;28;20028;-64
2022/03/08 01:25:44;;;;;;;15.75;7.05;;;3.70;99.90;;;;;;5030123;28;20050;-63
2022/03/08 01:28:10;;;;;;;16.15;7.32;;;3.70;99.90;;;;;;5044402;28;20025;-63
2022/03/08 01:30:36;;;;;;;14.13;6.55;;;3.70;99.90;;;;;;5045728;28;20116;-67
2022/03/08 01:33:01;;;;;;;16.20;6.80;;;3.60;99.90;;;;;;5042375;28;20045;-67
2022/03/08 01:35:27;;;;;;;16.60;6.80;;;3.60;99.90;;;;;;5035493;28;20049;-68
2022/03/08 01:37:53;;;;;;;15.05;6.40;;;3.60;99.90;;;;;;5038225;28;20029;-64
2022/03/08 01:40:19;;;;;;;17.08;7.13;;;3.60;99.90;;;;;;5047356;28;20033;-65
2022/03/08 01:42:47;;;;;;;17.63;6.95;;;3.60;99.90;;;;;;5042382;28;20028;-65
2022/03/08 01:45:16;;;;;;;14.40;6.57;;;3.60;99.90;;;;;;5047284;28;20044;-63
2022/03/08 01:47:42;;;;;;;16.08;6.45;;;3.50;99.90;;;;;;5043890;28;20485;-63
2022/03/08 01:50:09;;;;;;;14.15;6.22;;;3.60;99.90;;;;;;5048341;28;20487;-62
2022/03/08 01:52:35;;;;;;;17.98;6.50;;;3.50;99.90;;;;;;5043523;28;20025;-65
2022/03/08 01:55:00;;;;;;;16.17;6.07;;;3.50;99.90;;;;;;5049323;28;20476;-66
2022/03/08 01:57:26;;;;;;;14.63;5.90;;;3.50;99.90;;;;;;5050278;28;20025;-65
2022/03/08 01:59:55;;;;;;;17.30;6.75;;;3.50;99.90;;;;;;5036655;28;20025;-64
2022/03/08 02:02:21;;;;;;;15.85;5.80;;;3.50;99.90;;;;;;5051964;28;20032;-65
2022/03/08 02:04:47;;;;;;;19.23;7.10;;;3.50;99.90;;;;;;5029045;28;20032;-62
2022/03/08 02:07:13;;;;;;;16.35;7.05;;;3.50;99.90;;;;;;5038359;28;20381;-65
2022/03/08 02:09:38;;;;;;;16.35;6.60;;;3.50;99.90;;;;;;5049564;28;20033;-64
2022/03/08 02:12:05;;;;;;;16.75;6.57;;;3.40;99.90;;;;;;5052693;28;20028;-66
2022/03/08 02:14:31;;;;;;;15.27;5.68;;;3.40;99.90;;;;;;5036325;28;20037;-63
2022/03/08 02:16:57;;;;;;;18.58;6.63;;;3.40;99.90;;;;;;5033624;28;20037;-64
2022/03/08 02:19:22;;;;;;;15.00;6.43;;;3.40;99.90;;;;;;5040245;28;20465;-67
2022/03/08 02:21:50;;;;;;;15.38;6.82;;;3.40;99.90;;;;;;5042023;28;20052;-65
2022/03/08 02:24:16;;;;;;;16.45;6.65;;;3.30;99.90;;;;;;5033887;28;20053;-63
2022/03/08 02:26:41;;;;;;;14.10;5.78;;;3.30;99.90;;;;;;5034399;28;20022;-64
2022/03/08 02:29:08;;;;;;;16.77;6.85;;;3.30;99.90;;;;;;5038402;28;20108;-64
2022/03/08 02:31:35;;;;;;;18.63;7.15;;;3.20;99.90;;;;;;5048926;28;20074;-67
2022/03/08 02:34:03;;;;;;;15.85;6.35;;;3.20;99.90;;;;;;5046595;28;20039;-63
2022/03/08 02:36:29;;;;;;;16.42;6.35;;;3.20;99.90;;;;;;5038057;28;20115;-64
2022/03/08 02:38:55;;;;;;;15.35;6.68;;;3.20;99.90;;;;;;5040496;28;20492;-66
2022/03/08 02:41:21;;;;;;;13.52;6.70;;;3.20;99.90;;;;;;5035925;28;20026;-64
2022/03/08 02:43:47;;;;;;;19.42;7.07;;;3.20;99.90;;;;;;5032962;28;20444;-65
2022/03/08 02:46:13;;;;;;;16.15;6.97;;;3.10;99.90;;;;;;5032097;28;20045;-63
2022/03/08 02:48:38;;;;;;;15.73;6.50;;;3.10;99.90;;;;;;5032793;28;20074;-66
2022/03/08 02:51:04;;;;;;;14.90;7.07;;;3.10;99.90;;;;;;5027352;28;20029;-63
2022/03/08 02:53:30;;;;;;;17.48;7.10;;;3.10;99.90;;;;;;5026365;28;20040;-67
2022/03/08 02:55:56;;;;;;;14.30;6.30;;;3.00;99.90;;;;;;5031570;28;20033;-66
2022/03/08 02:58:21;;;;;;;15.20;6.75;;;3.10;99.90;;;;;;5033215;28;20044;-65
2022/03/08 03:00:47;;;;;;;13.30;6.32;;;3.00;99.90;;;;;;5031988;28;20504;-64
2022/03/08 03:03:13;;;;;;;13.88;6.53;;;3.00;99.90;;;;;;5031781;28;20339;-64
2022/03/08 03:05:38;;;;;;;16.90;7.07;;;3.00;99.90;;;;;;5031388;28;20466;-67
2022/03/08 03:08:06;;;;;;;14.55;6.05;;;3.00;99.90;;;;;;5032335;28;20489;-67
2022/03/08 03:10:32;;;;;;;15.38;6.60;;;3.00;99.90;;;;;;5030461;28;20091;-65
2022/03/08 03:12:58;;;;;;;16.73;6.30;;;3.00;99.90;;;;;;5032561;28;20458;-67
2022/03/08 03:15:26;;;;;;;15.07;6.32;;;2.90;99.90;;;;;;5030689;28;20060;-65
2022/03/08 03:17:52;;;;;;;16.38;6.63;;;2.90;99.90;;;;;;5033441;28;20434;-63
2022/03/08 03:20:20;;;;;;;16.00;6.53;;;2.90;99.90;;;;;;5052177;28;20028;-63
2022/03/08 03:22:47;;;;;;;17.35;7.25;;;2.90;99.90;;;;;;5044447;28;20472;-63
2022/03/08 03:25:14;;;;;;;12.80;5.90;;;2.90;99.90;;;;;;5044584;28;20049;-62
2022/03/08 03:27:40;;;;;;;13.40;6.32;;;2.90;99.90;;;;;;5037348;28;20056;-63
2022/03/08 03:30:11;;;;;;;14.52;6.55;;;2.90;99.90;;;;;;5050722;28;20022;-63
2022/03/08 03:32:38;;;;;;;13.63;5.30;;;2.90;99.90;;;;;;5051449;28;20029;-63
2022/03/08 03:35:04;;;;;;;16.75;6.35;;;2.90;99.90;;;;;;5039738;28;20029;-63
2022/03/08 03:37:29;;;;;;;14.70;6.13;;;2.90;99.90;;;;;;5036250;28;20216;-63
2022/03/08 03:39:55;;;;;;;18.95;6.70;;;2.90;99.90;;;;;;5049375;28;20060;-63
2022/03/08 03:42:21;;;;;;;14.98;6.32;;;2.80;99.90;;;;;;5052154;28;20350;-63
2022/03/08 03:44:46;;;;;;;12.57;6.05;;;2.90;99.90;;;;;;5039785;28;20048;-62
2022/03/08 03:47:12;;;;;;;15.38;6.70;;;2.90;99.90;;;;;;5036069;28;20519;-63
2022/03/08 03:49:38;;;;;;;14.07;6.07;;;2.90;99.90;;;;;;5035838;28;20025;-62
2022/03/08 03:52:04;;;;;;;12.73;6.28;;;2.90;99.90;;;;;;5035429;28;20025;-62
2022/03/08 03:54:30;;;;;;;14.30;6.03;;;2.80;99.90;;;;;;5039785;28;20033;-63
2022/03/08 03:56:56;;;;;;;14.98;7.03;;;2.80;99.90;;;;;;5035296;28;20059;-62
2022/03/08 03:59:21;;;;;;;12.60;5.35;;;2.80;99.90;;;;;;5048252;28;20487;-63
2022/03/08 04:01:47;;;;;;;9.80;4.90;;;2.80;99.90;;;;;;5051922;28;20031;-63
2022/03/08 04:04:12;;;;;;;14.55;5.82;;;2.80;99.90;;;;;;5039102;28;20473;-63
2022/03/08 04:06:38;;;;;;;15.13;6.47;;;2.80;99.90;;;;;;5036514;28;20109;-63
2022/03/08 04:09:04;;;;;;;14.23;5.82;;;2.80;99.90;;;;;;5045701;28;20048;-64
2022/03/08 04:11:30;;;;;;;12.98;6.03;;;2.80;99.90;;;;;;5047953;28;20067;-62
2022/03/08 04:13:56;;;;;;;14.50;6.30;;;2.80;99.90;;;;;;5040489;28;20036;-64
2022/03/08 04:16:21;;;;;;;13.23;5.32;;;2.80;99.90;;;;;;5055137;28;20025;-64
2022/03/08 04:18:47;;;;;;;14.82;6.65;;;2.80;99.90;;;;;;5040639;28;20468;-64
2022/03/08 04:21:13;;;;;;;14.20;6.38;;;2.70;99.90;;;;;;5036795;28;20018;-64
2022/03/08 04:23:38;;;;;;;15.07;6.20;;;2.70;99.90;;;;;;5040772;28;20061;-64
2022/03/08 04:26:04;;;;;;;13.80;5.13;;;2.70;99.90;;;;;;5037958;28;20536;-64
2022/03/08 04:28:30;;;;;;;13.85;6.35;;;2.70;99.90;;;;;;5040746;28;20082;-64
2022/03/08 04:30:55;;;;;;;12.07;6.05;;;2.70;99.90;;;;;;5050023;28;20028;-64
2022/03/08 04:33:21;;;;;;;15.23;6.07;;;2.70;99.90;;;;;;5044211;28;20029;-64
2022/03/08 04:35:46;;;;;;;14.40;6.32;;;2.70;99.90;;;;;;5039322;28;20075;-64
2022/03/08 04:38:12;;;;;;;13.18;5.70;;;2.70;99.90;;;;;;5040663;28;20060;-64
2022/03/08 04:40:37;;;;;;;13.52;5.97;;;2.70;99.90;;;;;;5046093;28;20036;-64
2022/03/08 04:43:03;;;;;;;12.80;5.70;;;2.80;99.90;;;;;;5050652;28;20025;-64
2022/03/08 04:45:29;;;;;;;13.32;5.82;;;2.70;99.90;;;;;;5038757;28;20034;-63
2022/03/08 04:47:54;;;;;;;14.82;6.03;;;2.70;99.90;;;;;;5039210;28;20029;-63
2022/03/08 04:50:20;;;;;;;12.80;5.50;;;2.80;99.90;;;;;;5041415;28;20044;-63
2022/03/08 04:52:48;;;;;;;12.52;5.78;;;2.70;99.90;;;;;;5040227;28;20388;-63
2022/03/08 04:55:15;;;;;;;12.43;5.63;;;2.70;99.90;;;;;;5040220;28;20022;-63
2022/03/08 04:57:40;;;;;;;14.13;5.82;;;2.70;99.90;;;;;;5042900;28;20033;-63
2022/03/08 05:00:13;;;;;;;13.27;6.60;;;2.70;99.90;;;;;;5043525;28;20476;-64
2022/03/08 05:02:40;;;;;;;14.15;6.43;;;2.70;99.90;;;;;;5040854;28;20029;-62
2022/03/08 05:05:08;;;;;;;12.07;5.68;;;2.70;99.90;;;;;;5039801;28;20389;-62
2022/03/08 05:07:35;;;;;;;17.02;6.35;;;2.70;99.90;;;;;;5041229;28;20101;-63
2022/03/08 05:10:01;;;;;;;13.45;6.32;;;2.70;99.90;;;;;;5046333;28;20052;-63
2022/03/08 05:12:26;;;;;;;14.10;5.97;;;2.60;99.90;;;;;;5039496;28;20454;-64
2022/03/08 05:14:52;;;;;;;15.40;6.10;;;2.60;99.90;;;;;;5043806;28;20029;-63
2022/03/08 05:17:17;;;;;;;12.43;5.30;;;2.60;99.90;;;;;;5046923;28;20029;-63
2022/03/08 05:19:43;;;;;;;14.30;6.45;;;2.60;99.90;;;;;;5038548;28;20105;-63
2022/03/08 05:22:09;;;;;;;17.15;6.90;;;2.50;99.90;;;;;;5038765;28;20033;-63
2022/03/08 05:24:34;;;;;;;12.43;5.75;;;2.50;99.90;;;;;;5049904;28;20045;-63
2022/03/08 05:27:00;;;;;;;13.07;5.55;;;2.50;99.90;;;;;;5040493;28;20032;-62
2022/03/08 05:29:25;;;;;;;14.45;5.97;;;2.50;99.90;;;;;;5039783;28;20025;-63
2022/03/08 05:31:51;;;;;;;13.48;5.97;;;2.40;99.90;;;;;;5036529;28;20049;-63
2022/03/08 05:34:16;;;;;;;12.40;6.03;;;2.40;99.90;;;;;;5052043;28;20021;-63
2022/03/08 05:36:42;;;;;;;14.23;6.55;;;2.40;99.90;;;;;;5052317;28;20025;-62
2022/03/08 05:39:07;;;;;;;13.82;5.95;;;2.40;99.90;;;;;;5042440;28;20018;-64
2022/03/08 05:41:33;;;;;;;14.85;6.40;;;2.40;99.90;;;;;;5037316;28;20394;-63
2022/03/08 05:43:59;;;;;;;14.20;6.32;;;2.40;99.90;;;;;;5038054;28;20021;-63
2022/03/08 05:46:24;;;;;;;10.95;5.70;;;2.40;99.90;;;;;;5049215;28;20101;-63
2022/03/08 05:48:50;;;;;;;12.65;5.85;;;2.40;99.90;;;;;;5042999;28;20033;-63
2022/03/08 05:51:15;;;;;;;11.73;5.93;;;2.40;99.90;;;;;;5037821;28;20038;-63
2022/03/08 05:53:41;;;;;;;15.75;6.95;;;2.40;99.90;;;;;;5033036;28;20034;-63
2022/03/08 05:56:07;;;;;;;15.63;6.03;;;2.40;99.90;;;;;;5033820;28;20425;-63
2022/03/08 05:58:33;;;;;;;13.55;6.43;;;2.40;99.90;;;;;;5039660;28;20032;-64
2022/03/08 06:00:59;;;;;;;10.95;5.80;;;2.40;99.90;;;;;;5043867;28;20025;-62
2022/03/08 06:03:24;;;;;;;13.73;5.65;;;2.40;99.90;;;;;;5033244;28;20433;-62
2022/03/08 06:05:50;;;;;;;14.82;5.72;;;2.40;99.90;;;;;;5035162;28;20037;-64
2022/03/08 06:08:15;;;;;;;13.00;6.53;;;2.40;99.90;;;;;;5047279;28;20060;-63
2022/03/08 06:10:41;;;;;;;12.63;5.72;;;2.40;99.90;;;;;;5040437;28;20033;-63
2022/03/08 06:13:06;;;;;;;17.20;6.32;;;2.40;99.90;;;;;;5035861;28;20507;-64
2022/03/08 06:15:32;;;;;;;11.48;5.10;;;2.30;99.90;;;;;;5034664;28;20033;-65
2022/03/08 06:17:57;;;;;;;15.52;6.30;;;2.30;99.90;;;;;;5041844;28;20104;-63
2022/03/08 06:20:23;;;;;;;14.73;5.75;;;2.40;99.90;;;;;;5046347;28;20535;-63
2022/03/08 06:22:49;;;;;;;16.85;6.10;;;2.40;99.90;;;;;;5044565;28;20026;-63
2022/03/08 06:25:16;;;;;;;14.43;6.10;;;2.40;99.90;;;;;;5043585;28;20135;-63
2022/03/08 06:27:42;;;;;;;16.52;6.13;;;2.40;99.90;;;;;;5032836;28;20022;-65
2022/03/08 06:30:08;;;;;;;11.35;5.43;;;2.40;99.90;;;;;;5041930;28;20026;-63
2022/03/08 06:32:33;;;;;;;10.63;5.47;;;2.40;99.90;;;;;;5042088;28;20373;-66
2022/03/08 06:34:59;;;;;;;14.02;6.30;;;2.50;99.90;;;;;;5041523;28;20029;-67
2022/03/08 06:37:25;;;;;;;13.25;5.60;;;2.50;99.90;;;;;;5040557;28;20243;-66
2022/03/08 06:39:50;;;;;;;13.18;5.68;;;2.50;99.90;;;;;;5039392;28;20108;-68
2022/03/08 06:42:16;;;;;;;16.52;6.25;;;2.60;99.90;;;;;;5049461;28;20030;-63
2022/03/08 06:44:42;;;;;;;14.98;5.53;;;2.60;99.90;;;;;;5033383;28;20108;-66
2022/03/08 06:47:09;;;;;;;13.48;5.97;;;2.60;99.90;;;;;;5043909;28;20119;-66
2022/03/08 06:49:37;;;;;;;13.73;5.38;;;2.60;99.90;;;;;;5046654;28;20028;-64
2022/03/08 06:52:03;;;;;;;14.93;6.53;;;2.70;99.90;;;;;;5045287;28;20029;-65
2022/03/08 06:54:29;;;;;;;12.00;5.38;;;2.60;99.90;;;;;;5041305;28;20061;-64
2022/03/08 06:56:55;;;;;;;17.80;7.88;;;2.70;99.90;;;;;;5038431;28;20061;-64
2022/03/08 06:59:21;;;;;;;14.38;5.68;;;2.80;99.90;;;;;;5044519;28;20441;-67
2022/03/08 07:01:47;;;;;;;18.13;6.10;;;2.80;99.90;;;;;;5034596;28;20385;-65
2022/03/08 07:04:13;;;;;;;14.85;6.28;;;2.80;99.90;;;;;;5038843;28;20037;-63
2022/03/08 07:06:39;;;;;;;11.65;5.30;;;2.80;99.90;;;;;;5038895;28;20030;-62
2022/03/08 07:09:05;;;;;;;13.82;5.80;;;2.90;99.90;;;;;;5039291;28;20026;-62
2022/03/08 07:11:31;;;;;;;14.40;6.40;;;2.90;99.90;;;;;;5039330;28;20029;-62
2022/03/08 07:13:57;;;;;;;12.65;5.80;;;3.00;99.90;;;;;;5039110;28;20315;-64
2022/03/08 07:16:23;;;;;;;16.10;6.32;;;3.00;99.90;;;;;;5038629;28;20036;-64
2022/03/08 07:18:49;;;;;;;14.95;6.13;;;3.00;99.90;;;;;;5038707;28;20025;-63
2022/03/08 07:21:14;;;;;;;16.30;6.45;;;3.00;99.90;;;;;;5034901;28;20036;-63
2022/03/08 07:23:40;;;;;;;15.20;6.13;;;3.10;99.90;;;;;;5037873;28;20095;-63
2022/03/08 07:26:06;;;;;;;15.07;6.07;;;3.20;99.90;;;;;;5035733;28;20432;-63
2022/03/08 07:28:31;;;;;;;11.93;5.72;;;3.20;99.90;;;;;;5038128;28;20029;-63
2022/03/08 07:30:57;;;;;;;15.27;6.70;;;3.30;99.90;;;;;;5036188;28;20029;-63
2022/03/08 07:33:23;;;;;;;10.75;5.85;;;3.40;99.90;;;;;;5038406;28;20027;-63
2022/03/08 07:35:48;;;;;;;13.82;6.15;;;3.40;99.90;;;;;;5038566;28;20032;-63
2022/03/08 07:38:15;;;;;;;13.32;6.03;;;3.50;99.90;;;;;;5038617;28;20083;-63
2022/03/08 07:40:42;;;;;;;11.75;5.22;;;3.60;99.90;;;;;;5039330;28;20045;-63
2022/03/08 07:43:07;;;;;;;11.32;5.20;;;3.70;99.90;;;;;;5036029;28;20029;-63
2022/03/08 07:45:35;;;;;;;17.90;6.05;;;3.70;99.90;;;;;;5042982;28;20037;-63
2022/03/08 07:48:00;;;;;;;11.65;5.13;;;3.80;99.90;;;;;;5038596;28;20436;-63
2022/03/08 07:50:27;;;;;;;15.32;6.32;;;3.80;99.90;;;;;;5038436;28;20461;-63
2022/03/08 07:52:52;;;;;;;15.20;5.68;;;3.90;99.90;;;;;;5036711;28;20037;-63
2022/03/08 07:55:18;;;;;;;15.60;7.60;;;4.00;99.90;;;;;;5035543;28;20079;-63
2022/03/08 07:57:44;;;;;;;11.60;5.90;;;4.10;99.90;;;;;;5037379;28;20037;-63
2022/03/08 08:00:10;;;;;;;12.38;5.72;;;4.20;99.90;;;;;;5037815;28;20620;-63
2022/03/08 08:02:37;;;;;;;14.13;6.15;;;4.20;99.90;;;;;;5036418;28;20033;-64
2022/03/08 08:05:03;;;;;;;12.20;5.60;;;4.40;99.90;;;;;;5034753;28;20037;-64
2022/03/08 08:07:29;;;;;;;15.48;5.93;;;4.50;99.90;;;;;;5035689;28;20030;-63
2022/03/08 08:09:54;;;;;;;15.50;6.72;;;4.60;99.90;;;;;;5033528;28;20029;-63
2022/03/08 08:12:20;;;;;;;13.82;6.50;;;4.70;99.90;;;;;;5028525;28;20393;-63
2022/03/08 08:14:46;;;;;;;12.23;5.28;;;4.90;99.90;;;;;;5034442;28;20048;-64
2022/03/08 08:17:11;;;;;;;16.38;7.10;;;5.00;99.90;;;;;;5034414;28;20032;-63
2022/03/08 08:19:37;;;;;;;17.20;6.97;;;5.20;99.90;;;;;;5034352;28;20389;-64
2022/03/08 08:22:03;;;;;;;15.18;6.45;;;5.40;99.90;;;;;;5034148;28;20402;-64
2022/03/08 08:24:28;;;;;;;12.30;5.78;;;5.70;99.90;;;;;;5034081;28;20063;-63
2022/03/08 08:26:54;;;;;;;11.20;4.93;;;6.00;99.30;;;;;;5035325;28;20026;-63
2022/03/08 08:29:19;;;;;;;14.85;6.65;;;6.50;98.50;;;;;;5035164;28;20037;-63
2022/03/08 08:31:45;;;;;;;11.48;5.60;;;6.90;98.00;;;;;;5035466;28;20025;-63
2022/03/08 08:34:10;;;;;;;14.45;6.00;;;7.60;96.90;;;;;;5034095;28;20034;-63
2022/03/08 08:36:36;;;;;;;15.00;5.30;;;8.40;95.70;;;;;;5034048;28;20038;-63
2022/03/08 08:39:02;;;;;;;11.02;5.53;;;9.10;94.20;;;;;;5029182;28;20024;-63
2022/03/08 08:41:28;;;;;;;12.77;5.55;;;9.80;92.80;;;;;;5034298;28;20474;-63
2022/03/08 08:43:54;;;;;;;12.40;5.80;;;10.40;90.70;;;;;;5033902;28;20029;-63
2022/03/08 08:46:19;;;;;;;11.18;5.63;;;10.90;88.00;;;;;;5033772;28;20052;-63
2022/03/08 08:48:45;;;;;;;13.65;5.90;;;11.70;85.00;;;;;;5034545;28;20070;-62
2022/03/08 08:51:10;;;;;;;12.52;5.60;;;12.20;80.40;;;;;;5026998;28;20084;-63
2022/03/08 08:53:36;;;;;;;12.70;5.55;;;12.80;77.80;;;;;;5032971;28;20068;-63
2022/03/08 08:56:02;;;;;;;14.55;5.45;;;13.10;73.80;;;;;;5034455;28;20053;-63
2022/03/08 08:58:27;;;;;;;11.90;5.15;;;13.60;71.70;;;;;;5032368;28;20385;-63
2022/03/08 09:00:53;;;;;;;10.07;5.43;;;13.80;68.70;;;;;;5015127;28;20026;-63
2022/03/08 09:03:18;;;;;;;10.48;5.28;;;14.00;67.30;;;;;;5021959;28;20055;-63
2022/03/08 09:05:45;;;;;;;14.10;5.47;;;14.30;66.10;;;;;;5033785;28;20057;-63
2022/03/08 09:08:11;;;;;;;9.25;4.68;;;14.60;63.90;;;;;;5034405;28;20029;-63
2022/03/08 09:10:37;;;;;;;10.13;4.93;;;14.80;62.30;;;;;;5037629;28;20028;-63
2022/03/08 09:13:03;;;;;;;7.85;4.90;;;14.90;61.00;;;;;;5047851;28;20017;-63
2022/03/08 09:15:29;;;;;;;9.40;5.05;;;15.10;60.00;;;;;;5032230;28;20708;-63
2022/03/08 09:17:55;;;;;;;10.25;5.03;;;15.20;58.30;;;;;;5033069;28;20100;-63
2022/03/08 09:20:22;;;;;;;12.25;5.22;;;15.20;57.00;;;;;;5034148;28;20061;-63
2022/03/08 09:22:48;;;;;;;10.63;4.82;;;15.30;57.40;;;;;;5034126;28;20022;-63
2022/03/08 09:25:14;;;;;;;8.27;4.68;;;15.70;55.60;;;;;;5034120;28;20060;-63
2022/03/08 09:27:39;;;;;;;13.60;5.03;;;15.50;54.80;;;;;;5014691;28;20041;-63
2022/03/08 09:30:06;;;;;;;10.25;4.13;;;15.30;54.40;;;;;;5026722;28;20529;-63
2022/03/08 09:32:32;;;;;;;10.98;4.88;;;15.00;54.70;;;;;;5034564;28;20061;-63
2022/03/08 09:34:58;;;;;;;9.38;5.22;;;14.80;55.00;;;;;;5034512;28;20159;-63
2022/03/08 09:37:23;;;;;;;8.88;4.78;;;14.90;55.70;;;;;;5033089;28;20503;-63
2022/03/08 09:39:49;;;;;;;9.98;4.97;;;15.20;54.40;;;;;;5033431;28;20057;-64
2022/03/08 09:42:15;;;;;;;8.75;4.15;;;15.30;54.60;;;;;;5034225;28;20381;-63
2022/03/08 09:44:41;;;;;;;11.43;5.00;;;15.50;53.40;;;;;;5033883;28;20520;-63
2022/03/08 09:47:07;;;;;;;9.82;4.63;;;15.40;53.70;;;;;;5033824;28;20033;-63
2022/03/08 09:49:33;;;;;;;11.60;4.90;;;15.50;53.60;;;;;;5031135;28;20022;-63
2022/03/08 09:51:58;;;;;;;9.98;4.57;;;15.50;53.10;;;;;;5014048;28;20455;-63
2022/03/08 09:54:24;;;;;;;9.85;4.70;;;15.40;53.30;;;;;;5014281;28;20048;-63
2022/03/08 09:56:50;;;;;;;9.30;4.72;;;15.50;52.80;;;;;;5013887;28;20072;-62
2022/03/08 09:59:19;;;;;;;9.48;4.32;;;15.60;52.90;;;;;;5015968;28;20516;-62
2022/03/08 10:01:46;;;;;;;11.60;5.22;;;15.90;51.90;;;;;;5031814;28;20084;-63
2022/03/08 10:04:19;;;;;;;13.32;5.50;;;15.80;52.00;;;;;;5033456;28;20021;-63
2022/03/08 10:06:50;;;;;;;7.95;4.78;;;15.80;52.20;;;;;;5033920;28;20030;-63
2022/03/08 10:09:18;;;;;;;8.82;4.93;;;16.00;51.40;;;;;;5033340;28;20366;-63
2022/03/08 10:11:44;;;;;;;10.15;4.85;;;16.30;51.00;;;;;;5033685;28;20025;-63
2022/03/08 10:14:26;;;;;;;7.60;3.78;;;16.40;51.30;;;;;;5033348;28;20037;-63
2022/03/08 10:16:52;;;;;;;10.77;4.72;;;16.70;50.40;;;;;;5031932;28;20022;-63
2022/03/08 10:19:18;;;;;;;9.27;4.72;;;16.70;49.70;;;;;;5033528;28;20021;-63
2022/03/08 10:21:47;;;;;;;8.98;5.00;;;16.50;50.00;;;;;;5033137;28;20021;-63
2022/03/08 10:24:25;;;;;;;8.23;4.50;;;16.60;50.10;;;;;;5032100;28;20481;-62
2022/03/08 10:26:52;;;;;;;10.73;5.07;;;16.60;49.60;;;;;;5032177;28;20034;-64
2022/03/08 10:29:23;;;;;;;7.95;4.53;;;16.50;49.40;;;;;;5033119;28;20029;-63
2022/03/08 10:31:49;;;;;;;9.30;4.63;;;16.40;49.00;;;;;;5033621;28;20025;-64
2022/03/08 10:34:17;;;;;;;8.52;4.97;;;16.40;49.30;;;;;;5033114;28;20504;-64
2022/03/08 10:37:20;;;;;;;5.82;4.07;;;16.50;48.60;;;;;;5032404;28;20355;-63
2022/03/08 10:39:49;;;;;;;11.63;5.10;;;16.40;49.20;;;;;;5030824;28;20040;-64
2022/03/08 10:42:20;;;;;;;9.70;4.72;;;16.40;50.10;;;;;;5033141;28;20037;-64
2022/03/08 10:44:46;;;;;;;10.27;5.40;;;16.90;49.50;;;;;;5032903;28;20037;-64
2022/03/08 10:47:13;;;;;;;8.93;4.97;;;17.40;48.60;;;;;;5031635;28;20033;-63
2022/03/08 10:49:51;;;;;;;9.40;5.15;;;17.70;48.10;;;;;;5032973;28;20163;-63
2022/03/08 10:52:17;;;;;;;9.02;4.53;;;17.60;48.50;;;;;;5033764;28;20087;-63
2022/03/08 10:54:43;;;;;;;8.73;4.57;;;17.70;48.10;;;;;;5033068;28;20037;-63
2022/03/08 10:57:09;;;;;;;8.60;4.85;;;17.60;47.70;;;;;;5032830;28;20017;-63
2022/03/08 10:59:35;;;;;;;10.23;4.72;;;17.60;47.80;;;;;;5033293;28;20026;-63
2022/03/08 11:02:21;;;;;;;8.27;5.18;;;17.70;47.70;;;;;;5032535;28;20037;-64
2022/03/08 11:04:47;;;;;;;7.95;4.75;;;17.50;47.50;;;;;;5032781;28;20034;-64
2022/03/08 11:07:13;;;;;;;8.25;4.45;;;17.40;47.30;;;;;;5032959;28;20033;-64
2022/03/08 11:09:40;;;;;;;8.07;4.82;;;17.30;47.00;;;;;;5033097;28;20076;-64
2022/03/08 11:12:06;;;;;;;11.98;5.10;;;17.20;47.10;;;;;;5032985;28;20043;-63
2022/03/08 11:14:31;;;;;;;12.63;5.50;;;17.10;47.60;;;;;;5032742;28;20108;-63
2022/03/08 11:16:58;;;;;;;10.07;5.63;;;17.10;47.70;;;;;;5032613;28;20029;-64
2022/03/08 11:19:27;;;;;;;6.70;4.57;;;17.40;47.90;;;;;;5033224;28;20106;-62
2022/03/08 11:21:56;;;;;;;16.58;5.88;;;17.90;47.50;;;;;;5033015;28;20022;-63
2022/03/08 11:24:22;;;;;;;8.90;5.30;;;18.00;47.00;;;;;;5032138;28;20053;-63
2022/03/08 11:26:50;;;;;;;7.50;4.95;;;18.30;47.60;;;;;;5032374;28;20022;-64
2022/03/08 11:29:16;;;;;;;10.38;5.28;;;18.40;46.10;;;;;;5033338;28;20561;-64
2022/03/08 11:31:44;;;;;;;10.75;5.22;;;18.40;46.10;;;;;;5040400;28;20100;-64
2022/03/08 11:34:19;;;;;;;9.80;4.90;;;18.50;46.00;;;;;;5047024;28;20026;-64
2022/03/08 11:36:54;;;;;;;7.15;4.70;;;18.60;45.00;;;;;;5032908;28;20366;-63
2022/03/08 11:39:28;;;;;;;8.98;5.57;;;18.20;45.40;;;;;;5035485;28;20026;-63
2022/03/08 11:42:20;;;;;;;10.65;5.30;;;17.90;45.60;;;;;;5051568;28;20108;-63
2022/03/08 11:45:07;;;;;;;9.75;4.65;;;17.60;46.20;;;;;;5034542;28;20048;-63
2022/03/08 11:47:56;;;;;;;7.30;4.93;;;17.70;46.40;;;;;;5036133;28;20455;-63
2022/03/08 11:50:29;;;;;;;8.63;4.90;;;17.60;46.50;;;;;;5034052;28;20390;-63
2022/03/08 11:53:06;;;;;;;7.57;4.80;;;17.60;46.60;;;;;;5035682;28;20063;-63
2022/03/08 11:55:44;;;;;;;10.65;4.95;;;17.80;46.00;;;;;;5034435;28;20416;-64
2022/03/08 11:58:10;;;;;;;9.27;4.95;;;18.20;45.70;;;;;;5051547;28;20111;-64
2022/03/08 12:00:40;;;;;;;7.63;4.63;;;18.20;45.80;;;;;;5055763;28;20116;-64
2022/03/08 12:03:15;;;;;;;7.78;4.75;;;18.30;45.50;;;;;;5036408;28;20025;-64
2022/03/08 12:05:48;;;;;;;9.63;4.63;;;18.30;45.00;;;;;;5027101;28;20039;-63
2022/03/08 12:08:28;;;;;;;11.45;5.60;;;18.30;44.60;;;;;;5035224;28;20026;-64
2022/03/08 12:11:03;;;;;;;9.57;5.13;;;17.90;44.80;;;;;;5034667;28;20033;-63
2022/03/08 12:13:37;;;;;;;9.25;4.63;;;18.10;45.00;;;;;;5045604;28;20013;-63
2022/03/08 12:16:05;;;;;;;8.43;4.75;;;18.50;44.20;;;;;;5043826;28;20032;-63
2022/03/08 12:18:50;;;;;;;11.23;4.90;;;18.50;44.10;;;;;;5039117;28;20469;-64
2022/03/08 12:21:17;;;;;;;6.97;4.80;;;18.70;44.10;;;;;;5034673;28;20029;-64
2022/03/08 12:23:51;;;;;;;9.38;4.75;;;18.60;43.50;;;;;;5035917;28;20054;-63
2022/03/08 12:26:36;;;;;;;10.38;4.95;;;18.10;43.90;;;;;;5035438;28;20484;-63
2022/03/08 12:29:36;;;;;;;9.10;4.28;;;18.00;44.20;;;;;;5034500;28;20075;-63
2022/03/08 12:32:03;;;;;;;10.00;5.07;;;17.80;43.80;;;;;;5036111;28;20037;-63
2022/03/08 12:34:40;;;;;;;7.63;4.53;;;17.60;44.00;;;;;;5035523;28;20017;-63
2022/03/08 12:37:16;;;;;;;7.70;4.53;;;17.60;44.50;;;;;;5035269;28;20026;-63
2022/03/08 12:39:53;;;;;;;7.20;4.43;;;17.70;44.10;;;;;;5045746;28;20026;-63
2022/03/08 12:42:38;;;;;;;10.48;4.90;;;17.90;44.10;;;;;;5035446;28;20045;-63
2022/03/08 12:45:10;;;;;;;8.63;4.60;;;18.10;44.30;;;;;;5032046;28;20378;-63